AIRPORT ID: 3S4

DATE: 2024-04-25 ZULU TIME: 7.55 LOCAL TIME: 0.55


METAR K3S4 250755Z AUTO 00000KT 10SM 08/07 A3008

ALTIMETER: A3008 Q1019

DENSITY ALT: 800 Ft

WIND DIRECT: 250

WIND SPEED: 2 Gust

WIND CONDITIONS:

VISIBILTY: 10SM 9999M

TEMPERATURE: 46 F 8 C

DEW POINT: 45 F 7 C

HUMID: 97%

LCL: Under 500 feet

RADIO CHECK: 0

ADVISARIES: 0

GREETINGS: 0

CONVERSATIONS: 0